Time;durP1;ratioP1;P1;durP2;ratioP2;P2;SDS_P1;SDS_P2;PMS_P1;PMS_P2;Temp;Humidity;BMP_temperature;BMP_pressure;BME280_temperature;BME280_humidity;BME280_pressure;Samples;Min_cycle;Max_cycle;Signal;HPM_P1;HPM_P2
2022/12/13 00:00:07;;;;;;;0.80;0.80;;;;;;;-5.24;81.01;96202.53;29371;218;64014;-89
2022/12/13 00:00:39;;;;;;;0.80;0.80;;;;;;;-5.24;81.30;96203.34;29373;220;63005;-88
2022/12/13 00:01:15;;;;;;;1.85;1.85;;;;;;;-5.25;81.34;96206.19;29373;219;63009;-90
2022/12/13 00:01:50;;;;;;;0.80;0.80;;;;;;;-5.25;81.71;96195.59;29373;212;63005;-88
2022/12/13 00:02:22;;;;;;;2.95;1.60;;;;;;;-5.24;81.60;96202.53;29373;212;63009;-90
2022/12/13 00:02:54;;;;;;;0.80;0.80;;;;;;;-5.25;81.57;96195.59;29373;242;63005;-88
2022/12/13 00:03:26;;;;;;;1.80;1.75;;;;;;;-5.26;81.72;96200.09;29373;194;63009;-88
2022/12/13 00:04:00;;;;;;;0.90;0.90;;;;;;;-5.26;81.72;96193.97;29373;325;63004;-89
2022/12/13 00:04:31;;;;;;;0.80;0.80;;;;;;;-5.27;81.56;96197.66;29373;205;63009;-89
2022/12/13 00:05:05;;;;;;;0.80;0.80;;;;;;;-5.29;81.52;96199.69;29371;235;64009;-88
2022/12/13 00:05:43;;;;;;;0.80;0.80;;;;;;;-5.29;81.70;96200.50;29373;231;63027;-89
2022/12/13 00:06:15;;;;;;;0.80;0.80;;;;;;;-5.30;81.84;96193.59;29373;279;63008;-89
2022/12/13 00:06:47;;;;;;;0.80;0.80;;;;;;;-5.31;81.91;96185.88;29373;252;63009;-89
2022/12/13 00:07:19;;;;;;;0.75;0.75;;;;;;;-5.34;81.90;96196.84;29371;304;64009;-89
2022/12/13 00:07:51;;;;;;;1.17;1.17;;;;;;;-5.36;81.66;96188.31;29373;203;63009;-88
2022/12/13 00:08:22;;;;;;;0.73;0.73;;;;;;;-5.38;81.48;96190.37;29373;219;63005;-87
2022/12/13 00:08:56;;;;;;;2.95;2.85;;;;;;;-5.41;81.71;96181.84;29373;310;63009;-89
2022/12/13 00:09:27;;;;;;;0.80;0.80;;;;;;;-5.44;81.69;96187.53;29373;223;63005;-89
2022/12/13 00:09:58;;;;;;;0.80;0.80;;;;;;;-5.47;81.92;96187.94;29373;212;63009;-88
2022/12/13 00:10:30;;;;;;;0.80;0.80;;;;;;;-5.47;82.08;96187.94;29373;233;63005;-88
2022/12/13 00:11:05;;;;;;;0.80;0.80;;;;;;;-5.47;82.28;96185.31;29373;357;63009;-88
2022/12/13 00:11:36;;;;;;;0.77;0.77;;;;;;;-5.47;82.33;96187.94;29373;252;63004;-90
2022/12/13 00:12:07;;;;;;;0.70;0.70;;;;;;;-5.50;82.37;96183.09;29373;351;63009;-88
2022/12/13 00:12:39;;;;;;;0.80;0.80;;;;;;;-5.48;82.35;96181.03;29371;197;64009;-89
2022/12/13 00:13:10;;;;;;;0.80;0.80;;;;;;;-5.48;82.42;96186.34;29373;262;63025;-89
2022/12/13 00:13:42;;;;;;;0.80;0.80;;;;;;;-5.50;82.38;96183.09;29373;255;63004;-89
2022/12/13 00:14:14;;;;;;;0.80;0.80;;;;;;;-5.51;82.33;96186.75;29373;208;63009;-88
2022/12/13 00:14:45;;;;;;;0.80;0.80;;;;;;;-5.50;82.05;96185.72;29373;202;63005;-88
2022/12/13 00:15:18;;;;;;;0.70;0.70;;;;;;;-5.44;82.03;96178.78;29371;225;64014;-89
2022/12/13 00:16:04;;;;;;;0.70;0.70;;;;;;;-5.40;81.76;96172.88;29373;229;63005;-89
2022/12/13 00:16:37;;;;;;;0.80;0.80;;;;;;;-5.38;81.50;96179.78;29373;216;63009;-88
2022/12/13 00:17:09;;;;;;;0.80;0.80;;;;;;;-5.37;81.63;96179.59;29373;219;63005;-89
2022/12/13 00:17:40;;;;;;;0.80;0.80;;;;;;;-5.36;81.77;96183.03;29373;232;63009;-88
2022/12/13 00:18:11;;;;;;;0.90;0.90;;;;;;;-5.37;81.73;96184.06;29373;246;63004;-89
2022/12/13 00:18:43;;;;;;;0.80;0.80;;;;;;;-5.43;81.58;96173.28;29373;205;63009;-89
2022/12/13 00:19:17;;;;;;;0.70;0.70;;;;;;;-5.38;81.48;96190.37;29373;202;63004;-87
2022/12/13 00:19:48;;;;;;;0.80;0.80;;;;;;;-5.39;81.44;96181.63;29371;256;64013;-89
2022/12/13 00:20:20;;;;;;;0.70;0.70;;;;;;;-5.42;81.44;96182.84;29373;203;63004;-89
2022/12/13 00:20:52;;;;;;;0.80;0.80;;;;;;;-5.43;81.18;96191.81;29373;320;63008;-88
2022/12/13 00:21:30;;;;;;;0.80;0.80;;;;;;;-5.44;81.38;96184.88;29373;347;63004;-88
2022/12/13 00:22:02;;;;;;;0.75;0.75;;;;;;;-5.45;81.27;96188.56;29373;211;63005;-88
2022/12/13 00:22:33;;;;;;;0.80;0.80;;;;;;;-5.45;81.28;96183.28;29371;241;64009;-89
2022/12/13 00:23:05;;;;;;;0.70;0.70;;;;;;;-5.44;81.35;96182.25;29373;197;63009;-88
2022/12/13 00:23:36;;;;;;;0.80;0.80;;;;;;;-5.43;81.24;96185.72;29373;279;63005;-89
2022/12/13 00:24:08;;;;;;;0.80;0.80;;;;;;;-5.43;81.32;96178.59;29373;303;63009;-89
2022/12/13 00:24:40;;;;;;;0.80;0.80;;;;;;;-5.43;81.27;96183.88;29371;210;64015;-88
2022/12/13 00:25:11;;;;;;;0.80;0.80;;;;;;;-5.43;81.07;96177.78;29373;204;63009;-89
2022/12/13 00:25:43;;;;;;;1.20;1.20;;;;;;;-5.43;81.03;96183.88;29373;229;63005;-89
2022/12/13 00:26:20;;;;;;;0.70;0.70;;;;;;;-5.42;81.01;96185.50;29372;296;64013;-89
2022/12/13 00:26:54;;;;;;;0.65;0.65;;;;;;;-5.43;80.82;96186.50;29373;213;63004;-90
2022/12/13 00:27:27;;;;;;;0.70;0.70;;;;;;;-5.41;81.20;96189.75;29373;221;63009;-89
2022/12/13 00:27:59;;;;;;;0.80;0.80;;;;;;;-5.42;81.41;96190.78;29373;277;63004;-89
2022/12/13 00:28:33;;;;;;;0.70;0.70;;;;;;;-5.43;81.41;96189.16;29371;218;64013;-88
2022/12/13 00:29:06;;;;;;;1.08;1.08;;;;;;;-5.42;81.46;96190.78;29372;235;64004;-89
2022/12/13 00:29:40;;;;;;;0.70;0.70;;;;;;;-5.43;81.47;96193.62;29373;220;63009;-89
2022/12/13 00:30:12;;;;;;;0.70;0.70;;;;;;;-5.45;81.60;96188.56;29373;226;63005;-89
2022/12/13 00:30:44;;;;;;;0.60;0.60;;;;;;;-5.45;81.46;96191.19;29373;225;63009;-88
2022/12/13 00:31:18;;;;;;;0.80;0.80;;;;;;;-5.45;81.36;96191.19;29373;211;63010;-89
2022/12/13 00:31:49;;;;;;;0.77;0.77;;;;;;;-5.45;81.39;96187.75;29373;232;63009;-90
2022/12/13 00:32:21;;;;;;;0.70;0.70;;;;;;;-5.45;81.51;96187.75;29373;232;63005;-88
2022/12/13 00:32:52;;;;;;;0.90;0.90;;;;;;;-5.46;81.45;96184.28;29371;203;64013;-89
2022/12/13 00:33:24;;;;;;;0.70;0.70;;;;;;;-5.47;81.62;96187.94;29373;272;63004;-88
2022/12/13 00:33:58;;;;;;;0.80;0.80;;;;;;;-5.48;81.99;96190.81;29373;214;63017;-89
2022/12/13 00:34:30;;;;;;;0.77;0.77;;;;;;;-5.51;82.21;96186.75;29372;227;64009;-89
2022/12/13 00:35:02;;;;;;;0.80;0.80;;;;;;;-5.55;81.75;96190.03;29371;228;64013;-89
2022/12/13 00:35:40;;;;;;;0.80;0.80;;;;;;;-5.58;81.79;96179.88;29373;225;63006;-89
2022/12/13 00:36:12;;;;;;;0.80;0.80;;;;;;;-5.58;82.00;96174.59;29373;227;63008;-90
2022/12/13 00:36:45;;;;;;;0.80;0.80;;;;;;;-5.57;82.03;96178.88;29373;361;63005;-88
2022/12/13 00:37:17;;;;;;;1.00;1.00;;;;;;;-5.57;82.00;96182.31;29373;257;63009;-88
2022/12/13 00:37:48;;;;;;;0.80;0.80;;;;;;;-5.58;81.83;96180.69;29373;210;63005;-89
2022/12/13 00:38:21;;;;;;;0.75;0.75;;;;;;;-5.59;82.00;96184.34;29371;222;64013;-89
2022/12/13 00:38:59;;;;;;;0.70;0.70;;;;;;;-5.59;81.91;96179.06;29373;233;63005;-88
2022/12/13 00:39:31;;;;;;;0.80;0.80;;;;;;;-5.63;82.04;96183.16;29373;216;63009;-90
2022/12/13 00:40:04;;;;;;;1.00;1.00;;;;;;;-5.64;82.32;96181.53;29371;206;64009;-88
2022/12/13 00:40:35;;;;;;;0.80;0.80;;;;;;;-5.65;82.29;96179.91;29373;234;63009;-89
2022/12/13 00:41:13;;;;;;;0.70;0.70;;;;;;;-5.65;82.32;96179.91;29373;214;63004;-89
2022/12/13 00:41:45;;;;;;;0.80;0.80;;;;;;;-5.65;82.43;96179.91;29373;356;63009;-90
2022/12/13 00:42:17;;;;;;;0.80;0.80;;;;;;;-5.65;82.45;96179.91;29371;197;64009;-89
2022/12/13 00:42:48;;;;;;;0.80;0.80;;;;;;;-5.64;82.38;96172.78;29373;215;63009;-88
2022/12/13 00:43:20;;;;;;;1.00;1.00;;;;;;;-5.63;82.39;96177.88;29373;224;63004;-88
2022/12/13 00:43:52;;;;;;;0.70;0.70;;;;;;;-5.64;82.21;96176.25;29373;217;63008;-90
2022/12/13 00:44:24;;;;;;;0.80;0.80;;;;;;;-5.66;82.05;96178.28;29373;221;63005;-88
2022/12/13 00:44:57;;;;;;;0.80;0.80;;;;;;;-5.67;82.28;96179.31;29373;197;63009;-89
2022/12/13 00:45:32;;;;;;;0.80;0.80;;;;;;;-5.69;82.94;96178.69;29373;220;63011;-90
2022/12/13 00:46:06;;;;;;;0.77;0.77;;;;;;;-5.71;82.70;96183.37;29373;219;63009;-90
2022/12/13 00:46:39;;;;;;;1.17;1.17;;;;;;;-5.76;82.51;96177.91;29372;197;63005;-89
2022/12/13 00:47:10;;;;;;;0.82;0.82;;;;;;;-5.76;82.67;96177.91;29373;228;63009;-90
2022/12/13 00:47:41;;;;;;;1.00;1.00;;;;;;;-5.76;82.87;96170.78;29371;347;64009;-89
2022/12/13 00:48:13;;;;;;;0.82;0.82;;;;;;;-5.76;83.01;96178.72;29373;319;63009;-90
2022/12/13 00:48:51;;;;;;;0.80;0.80;;;;;;;-5.77;83.04;96173.63;29373;226;63004;-89
2022/12/13 00:49:23;;;;;;;0.80;0.80;;;;;;;-5.77;83.07;96181.56;29373;212;63009;-88
2022/12/13 00:49:55;;;;;;;0.85;0.85;;;;;;;-5.77;83.15;96181.56;29373;218;63004;-88
2022/12/13 00:50:27;;;;;;;0.80;0.80;;;;;;;-5.79;83.08;96173.03;29373;202;63009;-88
2022/12/13 00:50:58;;;;;;;0.75;0.75;;;;;;;-5.81;83.12;96169.78;29371;303;64008;-89
2022/12/13 00:51:33;;;;;;;0.90;0.90;;;;;;;-5.84;83.30;96175.47;29373;313;63008;-88
2022/12/13 00:52:05;;;;;;;0.80;0.80;;;;;;;-5.85;83.49;96171.22;29373;228;63005;-89
2022/12/13 00:52:36;;;;;;;0.80;0.80;;;;;;;-5.87;83.65;96167.97;29373;216;63009;-89
2022/12/13 00:53:09;;;;;;;6.62;6.03;;;;;;;-5.87;83.40;96166.13;29373;219;63005;-88
2022/12/13 00:53:41;;;;;;;0.70;0.70;;;;;;;-5.88;83.46;96163.69;29373;203;63009;-88
2022/12/13 00:54:12;;;;;;;0.70;0.70;;;;;;;-5.88;83.31;96158.41;29373;226;63005;-89
2022/12/13 00:54:46;;;;;;;0.80;0.80;;;;;;;-5.90;83.29;96160.50;29371;205;64013;-88
2022/12/13 00:55:18;;;;;;;0.90;0.90;;;;;;;-5.92;83.32;96158.06;29373;228;63004;-89
2022/12/13 00:55:50;;;;;;;1.65;1.55;;;;;;;-5.93;83.14;96160.91;29373;232;63009;-90
2022/12/13 00:56:25;;;;;;;0.75;0.75;;;;;;;-5.94;83.17;96159.28;29373;204;63004;-90
2022/12/13 00:56:56;;;;;;;0.80;0.80;;;;;;;-5.94;83.51;96159.28;29373;220;63009;-89
2022/12/13 00:57:27;;;;;;;0.80;0.80;;;;;;;-5.95;83.41;96157.69;29371;288;64009;-89
2022/12/13 00:57:59;;;;;;;0.90;0.90;;;;;;;-5.96;83.63;96154.22;29373;208;63008;-88
2022/12/13 00:58:30;;;;;;;0.80;0.80;;;;;;;-5.97;83.71;96154.44;29373;272;63004;-88
2022/12/13 00:59:02;;;;;;;0.90;0.90;;;;;;;-5.97;83.90;96155.25;29373;358;63008;-90
2022/12/13 00:59:34;;;;;;;0.80;0.80;;;;;;;-5.99;83.87;96152.00;29373;222;63005;-89
2022/12/13 01:00:08;;;;;;;0.80;0.80;;;;;;;-5.99;84.00;96156.47;29373;296;63009;-89
2022/12/13 01:00:39;;;;;;;0.80;0.80;;;;;;;-5.98;84.27;96150.16;29371;202;64009;-88
2022/12/13 01:01:15;;;;;;;0.80;0.80;;;;;;;-5.98;84.26;96152.81;29373;200;63009;-89
2022/12/13 01:01:48;;;;;;;0.80;0.80;;;;;;;-5.98;84.35;96144.87;29373;197;63005;-89
2022/12/13 01:02:23;;;;;;;0.80;0.80;;;;;;;-5.98;84.49;96152.81;29373;234;63009;-89
2022/12/13 01:02:54;;;;;;;0.90;0.90;;;;;;;-6.00;84.42;96150.38;29373;387;63004;-88
2022/12/13 01:03:26;;;;;;;0.80;0.80;;;;;;;-6.00;84.55;96153.00;29373;225;63009;-89
2022/12/13 01:04:02;;;;;;;0.70;0.70;;;;;;;-5.99;84.57;96148.53;29373;210;63004;-89
2022/12/13 01:04:33;;;;;;;0.80;0.80;;;;;;;-6.00;84.70;96147.72;29371;601;64013;-88
2022/12/13 01:05:06;;;;;;;0.80;0.80;;;;;;;-5.98;84.71;96147.53;29371;207;64009;-88
2022/12/13 01:05:38;;;;;;;0.70;0.70;;;;;;;-5.97;84.71;96144.69;29373;364;63008;-89
2022/12/13 01:06:34;;;;;;;0.80;0.80;;;;;;;-5.96;84.47;96143.66;29373;218;63005;-88
2022/12/13 01:07:06;;;;;;;0.90;0.90;;;;;;;-5.95;84.51;96149.75;29373;208;63009;-89
2022/12/13 01:07:43;;;;;;;2.75;2.55;;;;;;;-5.95;84.25;96147.91;29373;235;63005;-89
2022/12/13 01:08:15;;;;;;;0.80;0.80;;;;;;;-5.95;84.26;96142.63;29373;225;63009;-89
2022/12/13 01:08:49;;;;;;;2.03;1.30;;;;;;;-5.97;84.18;96144.69;29373;214;63005;-89
2022/12/13 01:09:26;;;;;;;0.85;0.85;;;;;;;-5.99;84.18;96140.62;29373;455;63009;-89
2022/12/13 01:09:58;;;;;;;0.90;0.90;;;;;;;-6.01;83.89;96147.94;29373;197;63005;-89
2022/12/13 01:10:29;;;;;;;0.80;0.80;;;;;;;-6.01;84.08;96146.09;29371;217;64013;-89
2022/12/13 01:11:02;;;;;;;0.90;0.90;;;;;;;-6.02;84.21;96135.75;29371;599;64009;-89
2022/12/13 01:11:34;;;;;;;0.80;0.80;;;;;;;-6.00;84.19;96144.28;29373;208;63009;-88
2022/12/13 01:12:07;;;;;;;0.95;0.95;;;;;;;-6.01;84.01;96137.37;29373;219;63004;-88
2022/12/13 01:12:38;;;;;;;0.80;0.80;;;;;;;-6.03;84.12;96140.22;29373;226;63009;-89
2022/12/13 01:13:11;;;;;;;0.80;0.80;;;;;;;-6.03;84.05;96140.22;29373;213;63004;-88
2022/12/13 01:13:44;;;;;;;0.82;0.82;;;;;;;-6.03;84.17;96144.69;29371;226;64014;-88
2022/12/13 01:14:17;;;;;;;0.77;0.77;;;;;;;-6.02;84.29;96143.66;29373;219;63005;-88
2022/12/13 01:14:49;;;;;;;0.95;0.95;;;;;;;-6.02;84.56;96141.03;29373;223;63005;-91
2022/12/13 01:15:20;;;;;;;0.80;0.80;;;;;;;-6.03;84.61;96144.69;29373;369;63005;-88
2022/12/13 01:15:52;;;;;;;0.80;0.80;;;;;;;-6.05;84.57;96141.44;29373;218;63009;-87
2022/12/13 01:16:33;;;;;;;0.70;0.70;;;;;;;-6.05;84.77;96141.44;29373;204;63005;-90
2022/12/13 01:17:06;;;;;;;6.90;4.30;;;;;;;-6.06;84.56;96145.09;29373;700;63005;-89
2022/12/13 01:17:38;;;;;;;1.60;1.58;;;;;;;-6.07;84.31;96148.75;29373;357;63015;-88
2022/12/13 01:18:12;;;;;;;0.80;0.80;;;;;;;-6.10;84.50;96144.69;29373;236;63014;-88
2022/12/13 01:18:45;;;;;;;0.80;0.80;;;;;;;-6.11;84.26;96143.87;29371;217;64006;-88
2022/12/13 01:19:16;;;;;;;1.15;1.15;;;;;;;-6.13;84.22;96151.19;29373;214;63009;-89
2022/12/13 01:19:48;;;;;;;2.03;1.83;;;;;;;-6.13;84.21;96147.75;29373;224;63004;-89
2022/12/13 01:20:19;;;;;;;0.80;0.80;;;;;;;-6.13;84.48;96151.19;29373;231;63008;-89
2022/12/13 01:21:10;;;;;;;0.80;0.80;;;;;;;-6.10;84.26;96144.69;29373;230;63004;-90
2022/12/13 01:21:42;;;;;;;0.80;0.80;;;;;;;-6.10;84.57;96148.16;29395;209;63026;-89
2022/12/13 01:22:13;;;;;;;0.80;0.80;;;;;;;-6.08;84.80;96147.94;29395;197;63005;-89
2022/12/13 01:22:44;;;;;;;0.80;0.80;;;;;;;-6.09;84.93;96147.13;29373;455;63009;-89
2022/12/13 01:23:16;;;;;;;0.75;0.75;;;;;;;-6.11;84.68;96149.16;29371;521;64009;-88
2022/12/13 01:23:47;;;;;;;1.00;1.00;;;;;;;-6.12;84.58;96147.53;29373;212;63009;-88
2022/12/13 01:24:20;;;;;;;0.75;0.75;;;;;;;-6.14;84.46;96149.56;29373;224;63005;-88
2022/12/13 01:24:52;;;;;;;0.80;0.80;;;;;;;-6.15;84.70;96152.44;29373;222;63009;-88
2022/12/13 01:25:24;;;;;;;0.77;0.77;;;;;;;-6.16;84.67;96151.59;29373;272;63004;-88
2022/12/13 01:25:55;;;;;;;0.80;0.80;;;;;;;-6.15;84.76;96153.22;29373;324;63009;-89
2022/12/13 01:26:26;;;;;;;0.80;0.80;;;;;;;-6.13;84.78;96153.03;29373;221;63004;-88
2022/12/13 01:26:58;;;;;;;0.77;0.77;;;;;;;-6.14;84.50;96154.84;29373;331;63009;-88
2022/12/13 01:27:31;;;;;;;2.55;2.45;;;;;;;-6.14;84.51;96154.84;29371;239;64009;-89
2022/12/13 01:28:03;;;;;;;0.80;0.80;;;;;;;-6.15;84.54;96157.72;29373;347;63008;-90
2022/12/13 01:28:38;;;;;;;0.77;0.77;;;;;;;-6.16;84.65;96154.25;29371;206;64008;-89
2022/12/13 01:29:10;;;;;;;0.80;0.80;;;;;;;-6.16;84.73;96150.81;29371;227;64014;-88
2022/12/13 01:29:41;;;;;;;0.80;0.80;;;;;;;-6.17;84.84;96155.25;29373;211;63005;-89
2022/12/13 01:30:13;;;;;;;1.30;1.15;;;;;;;-6.18;85.17;96153.66;29373;198;63009;-87
2022/12/13 01:30:52;;;;;;;0.80;0.80;;;;;;;-6.18;85.04;96158.94;29373;234;63005;-89
2022/12/13 01:31:24;;;;;;;0.90;0.90;;;;;;;-6.19;85.06;96162.59;29373;219;63009;-88
2022/12/13 01:31:56;;;;;;;0.70;0.70;;;;;;;-6.19;84.56;96156.50;29373;202;63005;-89
2022/12/13 01:32:27;;;;;;;0.80;0.80;;;;;;;-6.20;84.75;96158.31;29373;202;63009;-88
2022/12/13 01:32:59;;;;;;;0.80;0.80;;;;;;;-6.20;84.74;96154.88;29373;204;63004;-88
2022/12/13 01:33:31;;;;;;;1.60;1.60;;;;;;;-6.19;84.85;96146.75;29373;302;63009;-89
2022/12/13 01:34:09;;;;;;;11.63;10.63;;;;;;;-6.17;84.89;96154.47;29363;231;65004;-88
2022/12/13 01:34:41;;;;;;;0.95;0.95;;;;;;;-6.13;84.54;96151.19;29371;218;64013;-90
2022/12/13 01:35:12;;;;;;;0.70;0.70;;;;;;;-6.15;84.48;96155.88;29372;196;63004;-87
2022/12/13 01:35:44;;;;;;;0.80;0.80;;;;;;;-6.17;84.42;96152.63;29373;205;63008;-88
2022/12/13 01:36:21;;;;;;;0.70;0.70;;;;;;;-6.17;84.48;96155.25;29373;212;63005;-90
2022/12/13 01:36:55;;;;;;;0.90;0.90;;;;;;;-6.19;84.03;96152.03;29373;197;63009;-89
2022/12/13 01:37:27;;;;;;;0.90;0.90;;;;;;;-6.21;83.90;96151.41;29373;291;63005;-87
2022/12/13 01:37:58;;;;;;;1.00;1.00;;;;;;;-6.17;84.00;96157.91;29373;212;63009;-87
2022/12/13 01:38:31;;;;;;;0.80;0.80;;;;;;;-6.16;83.76;96154.25;29373;284;63007;-87
2022/12/13 01:39:04;;;;;;;0.80;0.80;;;;;;;-6.16;83.85;96151.59;29371;202;64013;-88
2022/12/13 01:39:36;;;;;;;0.80;0.80;;;;;;;-6.16;83.99;96151.59;29373;215;63005;-89
2022/12/13 01:40:11;;;;;;;0.75;0.75;;;;;;;-6.18;83.79;96153.66;29373;318;63023;-88
2022/12/13 01:40:56;;;;;;;0.80;0.80;;;;;;;-6.17;83.87;96149.19;29373;219;63004;-89
2022/12/13 01:41:31;;;;;;;0.80;0.80;;;;;;;-6.18;83.70;96151.00;29373;315;63009;-87
2022/12/13 01:42:03;;;;;;;0.90;0.90;;;;;;;-6.19;83.39;96146.75;29373;216;63004;-89
2022/12/13 01:42:39;;;;;;;0.90;0.90;;;;;;;-6.21;83.03;96147.97;29373;310;63010;-90
2022/12/13 01:43:15;;;;;;;0.77;0.77;;;;;;;-6.24;82.84;96154.50;29373;398;63004;-89
2022/12/13 01:43:54;;;;;;;0.80;0.80;;;;;;;-6.23;83.09;96144.72;29373;295;63009;-89
2022/12/13 01:45:12;;;;;;;0.90;0.90;;;;;;;-6.23;82.90;96144.72;29371;246;64009;-89
2022/12/13 01:45:44;;;;;;;0.80;0.80;;;;;;;-6.25;82.67;96147.59;29373;196;63005;-88
2022/12/13 01:46:18;;;;;;;0.80;0.80;;;;;;;-6.29;82.56;96146.38;29373;208;63009;-88
2022/12/13 01:46:50;;;;;;;0.80;0.80;;;;;;;-6.30;82.72;96150.03;29373;225;63005;-91
2022/12/13 01:47:42;;;;;;;0.70;0.70;;;;;;;-6.34;82.77;96143.53;29373;205;63009;-90
2022/12/13 01:48:20;;;;;;;0.80;0.80;;;;;;;-6.35;82.87;96149.81;29373;724;63020;-88
2022/12/13 01:49:10;;;;;;;0.90;0.90;;;;;;;-6.36;83.08;96148.22;29373;218;63004;-88
2022/12/13 01:49:51;;;;;;;0.80;0.80;;;;;;;-6.38;83.44;96147.59;29371;428;64009;-89
2022/12/13 01:50:35;;;;;;;0.90;0.90;;;;;;;-6.39;83.61;96145.97;29373;216;63004;-90
2022/12/13 01:51:13;;;;;;;1.48;1.48;;;;;;;-6.44;83.89;96143.13;29373;206;63008;-89
2022/12/13 01:52:03;;;;;;;0.80;0.80;;;;;;;-6.44;83.91;96149.22;29373;333;63005;-88
2022/12/13 01:52:41;;;;;;;0.82;0.82;;;;;;;-6.46;83.90;96145.16;29373;341;63009;-88
2022/12/13 01:53:22;;;;;;;0.90;0.90;;;;;;;-6.45;84.03;96152.06;29373;204;63005;-87
2022/12/13 01:53:58;;;;;;;0.80;0.80;;;;;;;-6.46;84.36;96145.16;29373;226;63009;-88
2022/12/13 01:54:39;;;;;;;0.80;0.80;;;;;;;-6.45;84.24;96144.16;29373;212;63010;-87
2022/12/13 01:55:13;;;;;;;0.90;0.90;;;;;;;-6.45;84.09;96142.31;29393;210;64013;-88
2022/12/13 01:55:54;;;;;;;0.75;0.75;;;;;;;-6.44;84.16;96145.78;29395;408;63004;-88
2022/12/13 01:56:40;;;;;;;0.80;0.80;;;;;;;-6.44;84.41;96145.78;29395;208;63009;-87
2022/12/13 01:57:17;;;;;;;0.90;0.90;;;;;;;-6.45;84.11;96141.50;29394;366;64009;-87
2022/12/13 01:57:51;;;;;;;0.93;0.93;;;;;;;-6.46;84.44;96139.88;29373;198;63009;-87
2022/12/13 01:58:24;;;;;;;0.73;0.73;;;;;;;-6.45;84.03;96136.22;29373;215;63004;-88
2022/12/13 01:58:59;;;;;;;0.80;0.80;;;;;;;-6.48;83.91;96136.63;29373;210;63009;-89
2022/12/13 01:59:37;;;;;;;0.90;0.90;;;;;;;-6.53;83.76;96134.59;29373;220;63005;-90
2022/12/13 02:00:17;;;;;;;6.55;5.90;;;;;;;-6.56;84.12;96140.28;29373;468;63009;-89
2022/12/13 02:00:57;;;;;;;0.80;0.80;;;;;;;-6.53;84.42;96142.53;29371;211;64009;-88
2022/12/13 02:01:37;;;;;;;0.80;0.80;;;;;;;-6.52;84.28;96135.41;29371;217;64013;-88
2022/12/13 02:02:12;;;;;;;;;;;;;;;-6.52;84.08;96135.41;29974;974;28000;-88
2022/12/13 02:02:47;;;;;;;0.80;0.80;;;;;;;-6.54;84.21;96137.44;29400;467;63004;-87
2022/12/13 02:03:22;;;;;;;0.77;0.77;;;;;;;-6.53;84.09;96139.88;29373;211;63009;-88
2022/12/13 02:03:55;;;;;;;0.80;0.80;;;;;;;-6.52;84.10;96135.41;29373;242;63004;-87
2022/12/13 02:04:40;;;;;;;0.90;0.90;;;;;;;-6.56;83.64;96134.19;29373;669;63009;-88
2022/12/13 02:06:09;;;;;;;0.80;0.80;;;;;;;-6.56;83.89;96134.19;29371;212;64008;-87
2022/12/13 02:06:47;;;;;;;0.85;0.85;;;;;;;-6.59;83.95;96129.34;29373;211;63009;-88
2022/12/13 02:07:25;;;;;;;0.90;0.90;;;;;;;-6.60;83.96;96127.72;29373;289;63005;-88
2022/12/13 02:08:06;;;;;;;0.75;0.75;;;;;;;-6.61;84.10;96126.94;29371;253;64013;-88
2022/12/13 02:08:42;;;;;;;1.30;1.30;;;;;;;-6.58;84.43;96133.59;29395;565;63005;-88
2022/12/13 02:09:15;;;;;;;1.02;1.02;;;;;;;-6.57;84.39;96128.09;29395;787;63009;-87
2022/12/13 02:09:49;;;;;;;0.80;0.80;;;;;;;-6.57;84.26;96127.28;29373;221;63004;-88
2022/12/13 02:10:28;;;;;;;0.80;0.80;;;;;;;-6.62;84.17;96124.50;29371;543;64013;-88
2022/12/13 02:11:12;;;;;;;1.25;1.25;;;;;;;-6.64;84.29;96131.78;29371;220;64009;-88
2022/12/13 02:12:01;;;;;;;5.80;5.60;;;;;;;-6.65;84.52;96130.97;29395;230;63009;-88
2022/12/13 02:12:37;;;;;;;0.95;0.95;;;;;;;-6.62;84.78;96124.50;29395;448;63004;-88
2022/12/13 02:13:09;;;;;;;0.80;0.80;;;;;;;-6.62;84.93;96127.13;29371;198;64006;-86
2022/12/13 02:13:41;;;;;;;0.80;0.80;;;;;;;-6.61;84.72;96121.66;29373;216;63005;-88
2022/12/13 02:14:12;;;;;;;0.80;0.80;;;;;;;-6.63;84.30;96125.50;29373;642;63009;-90
2022/12/13 02:14:44;;;;;;;1.50;1.50;;;;;;;-6.65;84.06;96130.16;29373;202;63001;-88
2022/12/13 02:15:18;;;;;;;0.80;0.80;;;;;;;-6.66;84.73;96118.81;29373;288;63009;-89
2022/12/13 02:16:16;;;;;;;0.80;0.80;;;;;;;-6.65;84.79;96119.63;29371;213;64009;-88
2022/12/13 02:17:20;;;;;;;0.80;0.80;;;;;;;-6.64;84.71;96122.06;29373;972;63009;-88
2022/12/13 02:18:24;;;;;;;0.80;0.80;;;;;;;-6.62;84.29;96129.75;29373;205;63004;-88
2022/12/13 02:20:00;;;;;;;0.80;0.80;;;;;;;-6.67;84.04;96126.91;29373;284;63017;-87
2022/12/13 02:21:05;;;;;;;0.90;0.90;;;;;;;-6.71;83.96;96115.16;29373;203;63008;-88
2022/12/13 02:22:18;;;;;;;0.85;0.85;;;;;;;-6.73;84.24;96118.00;29371;200;64014;-88
2022/12/13 02:23:28;;;;;;;0.85;0.85;;;;;;;-6.76;83.81;96115.75;29373;197;63015;-87
2022/12/13 02:24:44;;;;;;;1.00;1.00;;;;;;;-6.78;84.36;96115.97;29373;221;63009;-88
2022/12/13 02:26:22;;;;;;;0.90;0.90;;;;;;;-6.77;85.08;96116.78;29371;432;64013;-88
2022/12/13 02:27:31;;;;;;;0.90;0.90;;;;;;;-6.76;85.06;96113.94;29371;635;64009;-88
2022/12/13 02:28:40;;;;;;;0.80;0.80;;;;;;;-6.73;85.13;96117.19;29373;712;63008;-88
2022/12/13 02:29:50;;;;;;;0.80;0.80;;;;;;;-6.72;84.57;96116.16;29373;208;63009;-90
2022/12/13 02:30:37;;;;;;;0.80;0.80;;;;;;;-6.70;84.19;96111.50;29373;497;63009;-88
2022/12/13 02:31:41;;;;;;;0.85;0.85;;;;;;;-6.72;84.29;96113.53;29371;216;64009;-88
2022/12/13 02:32:45;;;;;;;0.80;0.80;;;;;;;-6.76;84.21;96119.22;29373;528;63013;-87
2022/12/13 02:33:43;;;;;;;1.00;1.00;;;;;;;-6.82;84.07;96114.72;29373;197;63012;-89
2022/12/13 02:34:29;;;;;;;1.30;1.30;;;;;;;-6.85;84.42;96109.88;29373;196;63009;-89
2022/12/13 02:35:25;;;;;;;0.85;0.85;;;;;;;-6.82;84.34;96108.66;29373;218;63004;-86
2022/12/13 02:36:25;;;;;;;0.80;0.80;;;;;;;-6.81;84.90;96116.34;29371;739;64014;-87
2022/12/13 02:37:05;;;;;;;0.80;0.80;;;;;;;-6.82;85.00;96109.47;29373;213;63005;-86
2022/12/13 02:38:03;;;;;;;0.77;0.77;;;;;;;-6.85;84.85;96112.50;29395;197;63009;-88
2022/12/13 02:39:06;;;;;;;0.82;0.82;;;;;;;-6.79;84.62;96114.34;29395;199;63005;-88
2022/12/13 02:40:09;;;;;;;0.80;0.80;;;;;;;-6.80;84.48;96115.34;29373;749;63009;-90
2022/12/13 02:41:04;;;;;;;0.80;0.80;;;;;;;-6.82;84.60;96114.72;29371;795;64009;-88
2022/12/13 02:41:58;;;;;;;0.80;0.80;;;;;;;-6.83;84.58;96115.75;29373;368;63009;-89
2022/12/13 02:42:36;;;;;;;0.80;0.80;;;;;;;-6.84;84.35;96110.69;29373;665;63004;-89
2022/12/13 02:43:29;;;;;;;0.90;0.90;;;;;;;-6.87;84.50;96106.63;29373;205;63008;-88
2022/12/13 02:44:11;;;;;;;0.80;0.80;;;;;;;-6.86;84.43;96113.50;29373;843;63005;-87
2022/12/13 02:44:54;;;;;;;0.90;0.90;;;;;;;-6.85;84.46;96107.22;29373;772;63009;-90
2022/12/13 02:45:47;;;;;;;0.90;0.90;;;;;;;-6.85;84.45;96104.59;29373;199;63005;-89
2022/12/13 02:46:24;;;;;;;0.88;0.88;;;;;;;-6.83;84.42;96107.03;29371;202;64013;-88
2022/12/13 02:47:05;;;;;;;0.88;0.88;;;;;;;-6.86;84.42;96113.50;29373;219;63005;-88
2022/12/13 02:47:42;;;;;;;1.58;1.48;;;;;;;-6.85;84.61;96104.59;29373;227;63009;-88
2022/12/13 02:48:24;;;;;;;0.90;0.90;;;;;;;-6.86;84.75;96108.25;29373;789;63004;-88
2022/12/13 02:48:58;;;;;;;0.80;0.80;;;;;;;-6.88;84.91;96115.53;29373;297;63009;-87
2022/12/13 02:49:34;;;;;;;0.90;0.90;;;;;;;-6.89;84.92;96113.91;29373;223;63004;-87
2022/12/13 02:50:10;;;;;;;0.80;0.80;;;;;;;-6.88;85.09;96104.19;29373;204;63008;-89
2022/12/13 02:50:42;;;;;;;0.80;0.80;;;;;;;-6.90;85.74;96112.28;29373;372;63010;-87
2022/12/13 02:51:16;;;;;;;2.37;1.87;;;;;;;-6.89;85.92;96107.84;29373;738;63009;-87
2022/12/13 02:51:51;;;;;;;0.85;0.85;;;;;;;-6.91;85.86;96113.31;29371;223;64009;-88
2022/12/13 02:52:27;;;;;;;0.80;0.80;;;;;;;-6.92;85.84;96111.69;29373;202;63009;-88
2022/12/13 02:53:02;;;;;;;0.80;0.80;;;;;;;-6.93;85.83;96107.41;29373;210;63005;-88
2022/12/13 02:53:37;;;;;;;0.90;0.90;;;;;;;-6.92;86.00;96109.03;29373;219;63009;-88
2022/12/13 02:54:09;;;;;;;0.90;0.90;;;;;;;-6.92;85.84;96111.69;29373;214;63005;-88
2022/12/13 02:54:43;;;;;;;1.20;1.20;;;;;;;-6.92;85.85;96110.88;29373;483;63009;-89
2022/12/13 02:55:17;;;;;;;1.70;1.60;;;;;;;-6.94;85.35;96111.09;29373;282;63004;-90
2022/12/13 02:55:55;;;;;;;0.88;0.88;;;;;;;-6.93;85.64;96112.69;29373;906;63009;-86
2022/12/13 02:56:35;;;;;;;0.80;0.80;;;;;;;-6.92;85.41;96114.31;29373;212;63004;-86
2022/12/13 02:57:28;;;;;;;0.80;0.80;;;;;;;-6.91;85.33;96115.13;29371;643;64002;-89
2022/12/13 02:58:01;;;;;;;0.90;0.90;;;;;;;-6.91;85.67;96115.94;29373;202;63008;-87